Time;durP1;ratioP1;P1;durP2;ratioP2;P2;SDS_P1;SDS_P2;PMS_P1;PMS_P2;Temp;Humidity;BMP_temperature;BMP_pressure;BME280_temperature;BME280_humidity;BME280_pressure;Samples;Min_cycle;Max_cycle;Signal;HPM_P1;HPM_P2
2021/12/29 00:00:48;;;;;;;42.45;13.18;;;;;;;11.01;68.30;100054.94;5198604;28;20518;-43
2021/12/29 00:03:20;;;;;;;41.97;12.20;;;;;;;10.99;68.25;100061.38;5196568;28;20413;-46
2021/12/29 00:05:54;;;;;;;34.30;11.68;;;;;;;10.99;68.19;100077.25;5202694;28;20527;-45
2021/12/29 00:08:26;;;;;;;41.30;14.23;;;;;;;10.96;68.30;100082.88;5198718;28;20616;-45
2021/12/29 00:10:59;;;;;;;37.72;13.27;;;;;;;10.98;68.40;100084.34;5192844;28;20415;-46
2021/12/29 00:13:31;;;;;;;41.22;12.25;;;;;;;10.99;68.32;100088.63;5202726;28;20413;-44
2021/12/29 00:16:04;;;;;;;33.58;12.45;;;;;;;10.98;68.25;100100.19;5198965;28;20443;-46
2021/12/29 00:18:37;;;;;;;33.37;11.47;;;;;;;10.96;68.39;100101.34;5198629;28;20468;-44
2021/12/29 00:21:11;;;;;;;30.38;11.10;;;;;;;10.96;68.31;100110.13;5194188;28;20784;-45
2021/12/29 00:23:43;;;;;;;28.85;11.02;;;;;;;10.87;68.26;100105.88;5196508;28;20506;-45
2021/12/29 00:26:16;;;;;;;41.75;11.75;;;;;;;10.92;68.28;100114.09;5191024;28;20840;-45
2021/12/29 00:28:48;;;;;;;32.83;12.55;;;;;;;10.95;68.40;100124.31;5201825;28;21004;-44
2021/12/29 00:31:21;;;;;;;33.83;13.43;;;;;;;10.95;68.43;100128.78;5197307;28;20447;-44
2021/12/29 00:33:54;;;;;;;37.10;12.90;;;;;;;10.85;68.41;100124.53;5203411;28;20448;-47
2021/12/29 00:36:28;;;;;;;37.42;14.27;;;;;;;10.88;68.48;100139.22;5199571;28;20505;-45
2021/12/29 00:39:00;;;;;;;31.67;12.15;;;;;;;10.87;68.46;100142.00;5191068;28;20698;-46
2021/12/29 00:41:33;;;;;;;41.10;13.73;;;;;;;10.87;68.56;100153.41;5199034;28;20504;-45
2021/12/29 00:44:07;;;;;;;32.53;12.57;;;;;;;10.87;68.46;100153.41;5196047;28;20430;-45
2021/12/29 00:46:40;;;;;;;40.25;14.50;;;;;;;10.85;68.54;100163.31;5204525;28;20544;-43
2021/12/29 00:49:13;;;;;;;39.63;13.63;;;;;;;10.80;68.42;100160.34;5199488;28;20510;-45
2021/12/29 00:51:47;;;;;;;38.67;14.30;;;;;;;10.88;68.51;100175.38;5197956;28;20442;-45
2021/12/29 00:54:19;;;;;;;31.73;13.95;;;;;;;10.92;68.67;100182.78;5199203;28;20496;-43
2021/12/29 00:56:51;;;;;;;33.97;13.77;;;;;;;10.94;68.31;100172.88;5197474;28;20413;-48
2021/12/29 00:59:24;;;;;;;38.43;14.73;;;;;;;10.76;68.42;100166.97;5195788;28;20413;-45
2021/12/29 01:02:00;;;;;;;37.75;15.40;;;;;;;10.93;68.43;100195.03;5199110;28;20423;-44
2021/12/29 01:04:33;;;;;;;38.80;14.57;;;;;;;10.93;68.27;100200.31;5200484;28;20834;-42
2021/12/29 01:07:07;;;;;;;33.58;14.30;;;;;;;10.93;68.31;100205.59;5198094;28;20496;-45
2021/12/29 01:09:41;;;;;;;38.20;14.30;;;;;;;10.94;68.23;100215.16;5201561;28;20426;-45
2021/12/29 01:12:15;;;;;;;34.90;15.23;;;;;;;10.96;68.34;100226.38;5202803;28;20429;-44
2021/12/29 01:14:53;;;;;;;32.00;14.70;;;;;;;10.95;68.28;100232.66;5200552;28;20433;-44
2021/12/29 01:17:26;;;;;;;38.22;14.60;;;;;;;10.93;68.25;100233.78;5196134;28;21233;-45
2021/12/29 01:19:59;;;;;;;42.05;15.05;;;;;;;10.92;68.37;100245.38;5194933;28;20779;-49
2021/12/29 01:22:33;;;;;;;41.90;15.23;;;;;;;10.93;68.36;100247.84;5202732;28;20967;-43
2021/12/29 01:25:07;;;;;;;34.40;14.73;;;;;;;10.95;68.38;100245.03;5199091;28;20439;-45
2021/12/29 01:27:39;;;;;;;36.90;14.32;;;;;;;10.94;68.33;100249.50;5196729;28;20520;-46
2021/12/29 01:30:12;;;;;;;39.67;16.27;;;;;;;10.94;68.33;100243.41;5201293;28;20795;-44
2021/12/29 01:32:45;;;;;;;35.22;15.25;;;;;;;10.82;68.40;100224.41;5188422;28;20436;-45
2021/12/29 01:35:17;;;;;;;44.08;16.25;;;;;;;10.96;68.45;100252.81;5198165;28;20429;-46
2021/12/29 01:37:51;;;;;;;41.47;16.10;;;;;;;10.96;68.40;100263.38;5209586;28;20404;-45
2021/12/29 01:40:23;;;;;;;39.75;15.15;;;;;;;10.96;68.37;100257.25;5198121;28;20443;-44
2021/12/29 01:42:56;;;;;;;45.63;16.35;;;;;;;10.96;68.23;100257.25;5208519;28;20415;-45
2021/12/29 01:45:28;;;;;;;40.55;15.25;;;;;;;10.95;68.40;100272.28;5198198;28;20505;-42
2021/12/29 01:48:01;;;;;;;43.65;15.65;;;;;;;10.98;68.28;100279.06;5201698;28;20419;-43
2021/12/29 01:50:35;;;;;;;39.65;15.73;;;;;;;10.99;68.34;100278.88;5202675;28;20435;-44
2021/12/29 01:53:12;;;;;;;35.53;14.70;;;;;;;11.00;68.28;100274.44;5201364;28;20858;-44
2021/12/29 01:55:44;;;;;;;39.45;14.23;;;;;;;10.99;68.13;100284.16;5205490;28;22722;-45
2021/12/29 01:58:17;;;;;;;34.75;13.73;;;;;;;10.96;68.29;100292.44;5200111;28;20443;-44
2021/12/29 02:00:51;;;;;;;33.33;12.98;;;;;;;10.98;68.27;100292.25;5202068;28;20757;-45
2021/12/29 02:03:23;;;;;;;38.88;11.60;;;;;;;10.99;68.30;100300.00;5206404;28;20401;-46
2021/12/29 02:05:55;;;;;;;31.90;11.95;;;;;;;10.99;68.33;100300.00;5202526;28;20431;-46
2021/12/29 02:08:29;;;;;;;27.67;11.50;;;;;;;10.91;68.35;100300.03;5201491;28;20436;-43
2021/12/29 02:11:03;;;;;;;31.65;11.45;;;;;;;10.97;68.36;100306.47;5202287;28;20439;-46
2021/12/29 02:13:36;;;;;;;32.63;12.20;;;;;;;10.98;68.28;100314.22;5202982;28;20439;-43
2021/12/29 02:16:08;;;;;;;35.33;12.00;;;;;;;10.99;68.30;100310.56;5196408;28;20417;-44
2021/12/29 02:18:41;;;;;;;37.53;12.73;;;;;;;11.00;68.35;100309.59;5203044;28;20478;-43
2021/12/29 02:21:20;;;;;;;45.10;14.63;;;;;;;11.02;68.16;100318.16;5197489;28;20965;-44
2021/12/29 02:24:16;;;;;;;42.85;13.82;;;;;;;11.05;68.13;100317.03;5207197;28;20417;-43
2021/12/29 02:26:49;;;;;;;34.50;12.50;;;;;;;11.05;68.06;100314.38;5200015;28;20401;-44
2021/12/29 02:29:21;;;;;;;40.22;12.52;;;;;;;11.11;68.12;100312.91;5193407;28;20541;-45
2021/12/29 02:31:54;;;;;;;33.83;11.85;;;;;;;11.09;68.12;100321.00;5190520;28;20881;-45
2021/12/29 02:34:26;;;;;;;34.35;12.20;;;;;;;11.08;68.09;100320.16;5185440;28;20482;-44
2021/12/29 02:37:02;;;;;;;27.85;9.77;;;;;;;11.06;68.23;100316.06;5181924;28;20784;-46
2021/12/29 02:39:37;;;;;;;25.63;9.25;;;;;;;11.00;68.27;100312.25;5175505;28;20906;-44
2021/12/29 02:42:10;;;;;;;31.38;10.90;;;;;;;11.02;68.31;100327.91;5180703;28;20425;-46
2021/12/29 02:44:46;;;;;;;23.10;9.48;;;;;;;11.02;68.28;100325.28;5182824;28;20446;-43
2021/12/29 02:47:18;;;;;;;23.08;9.48;;;;;;;10.99;68.22;100321.16;5177764;28;20433;-44
2021/12/29 02:49:51;;;;;;;23.42;9.13;;;;;;;11.00;68.31;100306.16;5182256;28;20415;-43
2021/12/29 02:52:25;;;;;;;26.85;8.85;;;;;;;11.02;68.17;100320.81;5185985;28;20427;-45
2021/12/29 02:54:58;;;;;;;26.00;8.65;;;;;;;11.04;68.16;100324.13;5190959;28;20423;-44
2021/12/29 02:57:30;;;;;;;27.60;8.30;;;;;;;11.06;68.11;100338.00;5179347;28;20433;-44
2021/12/29 03:00:04;;;;;;;23.08;8.52;;;;;;;11.02;68.13;100341.13;5187629;28;20780;-43
2021/12/29 03:02:36;;;;;;;24.20;8.18;;;;;;;11.11;68.06;100347.25;5188010;28;20429;-44
2021/12/29 03:05:11;;;;;;;23.05;8.80;;;;;;;11.12;67.99;100351.53;5188922;28;20437;-44
2021/12/29 03:07:45;;;;;;;25.38;7.88;;;;;;;11.14;68.00;100360.97;5177825;28;20496;-44
2021/12/29 03:10:17;;;;;;;27.83;8.93;;;;;;;11.16;68.04;100374.03;5173754;28;20428;-44
2021/12/29 03:12:50;;;;;;;19.55;7.43;;;;;;;11.14;67.96;100371.53;5179243;28;20420;-44
2021/12/29 03:15:22;;;;;;;27.80;8.32;;;;;;;11.13;68.03;100382.28;5184782;28;20400;-44
2021/12/29 03:17:54;;;;;;;21.75;7.95;;;;;;;11.13;68.07;100391.03;5177599;28;20526;-44
2021/12/29 03:20:27;;;;;;;22.85;8.05;;;;;;;11.17;67.96;100394.16;5188391;28;20426;-43
2021/12/29 03:23:01;;;;;;;29.42;9.05;;;;;;;11.15;67.79;100385.56;5174397;28;20417;-47
2021/12/29 03:25:34;;;;;;;24.45;10.40;;;;;;;11.22;67.77;100410.38;5180870;28;20937;-45
2021/12/29 03:28:06;;;;;;;32.05;11.45;;;;;;;11.25;67.86;100410.03;5188493;28;20863;-46
2021/12/29 03:30:41;;;;;;;32.63;11.37;;;;;;;11.15;67.79;100414.63;5189612;28;20878;-45
2021/12/29 03:33:14;;;;;;;37.45;12.55;;;;;;;11.23;67.91;100426.06;5203601;28;20964;-44
2021/12/29 03:35:49;;;;;;;45.28;13.15;;;;;;;11.24;67.82;100424.22;5199853;28;20884;-45
2021/12/29 03:38:24;;;;;;;37.50;11.57;;;;;;;11.15;67.84;100412.84;5198304;28;20479;-45
2021/12/29 03:40:59;;;;;;;31.77;11.30;;;;;;;11.27;67.82;100424.75;5197744;28;20431;-42
2021/12/29 03:43:33;;;;;;;32.85;10.18;;;;;;;11.18;67.57;100419.59;5200113;28;20502;-44
2021/12/29 03:46:07;;;;;;;37.03;9.65;;;;;;;11.24;67.70;100435.66;5207061;28;20417;-44
2021/12/29 03:48:46;;;;;;;31.17;8.82;;;;;;;11.28;67.79;100438.78;5201250;28;20858;-44
2021/12/29 03:51:19;;;;;;;34.45;9.02;;;;;;;11.25;67.81;100447.88;5197561;28;20432;-43
2021/12/29 03:53:52;;;;;;;31.73;10.05;;;;;;;11.25;67.73;100447.88;5202416;28;20413;-45
2021/12/29 03:56:25;;;;;;;27.00;10.05;;;;;;;11.21;67.97;100443.06;5199323;28;20431;-50
2021/12/29 03:58:57;;;;;;;38.58;11.05;;;;;;;11.24;67.80;100450.66;5199060;28;20909;-43
2021/12/29 04:01:29;;;;;;;33.17;10.45;;;;;;;11.25;67.71;100441.75;5194966;28;20453;-52
2021/12/29 04:04:01;;;;;;;38.17;12.43;;;;;;;11.17;67.72;100432.00;5199665;28;20428;-45
2021/12/29 04:06:34;;;;;;;33.28;10.10;;;;;;;11.26;67.83;100448.69;5197872;28;20431;-44
2021/12/29 04:09:08;;;;;;;29.15;10.18;;;;;;;11.30;67.70;100450.00;5196789;28;20451;-46
2021/12/29 04:11:40;;;;;;;38.60;10.70;;;;;;;11.30;67.73;100442.06;5195475;28;21167;-43
2021/12/29 04:14:12;;;;;;;32.58;9.82;;;;;;;11.32;67.70;100440.09;5200875;28;20518;-43
2021/12/29 04:16:46;;;;;;;32.08;8.88;;;;;;;11.32;67.61;100442.75;5205846;28;20425;-47
2021/12/29 04:19:29;;;;;;;26.25;8.95;;;;;;;11.35;67.68;100453.00;5195379;28;20423;-44
2021/12/29 04:22:01;;;;;;;28.77;9.32;;;;;;;11.35;67.73;100446.88;5196647;28;20939;-46
2021/12/29 04:24:37;;;;;;;26.48;9.32;;;;;;;11.34;67.82;100454.00;5207508;28;20525;-45
2021/12/29 04:27:09;;;;;;;31.73;8.88;;;;;;;11.27;67.85;100453.84;5200306;28;20477;-44
2021/12/29 04:29:41;;;;;;;42.33;9.48;;;;;;;11.28;67.87;100470.50;5197461;28;20786;-45
2021/12/29 04:32:14;;;;;;;31.80;9.77;;;;;;;11.26;67.77;100468.03;5186265;28;20435;-45
2021/12/29 04:34:46;;;;;;;32.17;8.63;;;;;;;11.29;67.86;100485.38;5173741;28;20423;-45
2021/12/29 04:37:19;;;;;;;36.42;9.38;;;;;;;11.28;67.93;100486.38;5184681;28;20854;-42
2021/12/29 04:39:52;;;;;;;36.42;8.88;;;;;;;11.29;67.85;100495.94;5180374;28;20437;-44
2021/12/29 04:42:25;;;;;;;31.25;7.75;;;;;;;11.27;67.90;100497.91;5183693;28;20422;-44
2021/12/29 04:44:57;;;;;;;20.58;7.05;;;;;;;11.25;67.95;100494.63;5178578;28;20427;-43
2021/12/29 04:47:30;;;;;;;23.67;6.05;;;;;;;11.22;68.08;100494.97;5172805;28;20411;-46
2021/12/29 04:50:03;;;;;;;19.27;6.10;;;;;;;11.21;68.12;100499.41;5189139;28;20526;-44
2021/12/29 04:52:35;;;;;;;28.95;7.00;;;;;;;11.21;67.99;100514.44;5184896;28;20419;-44
2021/12/29 04:55:10;;;;;;;19.98;5.60;;;;;;;11.20;68.15;100507.50;5175235;28;20941;-45
2021/12/29 04:57:43;;;;;;;26.77;5.32;;;;;;;11.16;68.20;100522.03;5177899;28;20930;-44
2021/12/29 05:00:16;;;;;;;20.58;5.20;;;;;;;11.15;68.16;100520.34;5180033;28;20440;-45
2021/12/29 05:02:49;;;;;;;22.67;5.32;;;;;;;11.11;68.09;100509.28;5183166;28;20428;-44
2021/12/29 05:05:38;;;;;;;27.73;5.40;;;;;;;11.14;68.13;100521.34;5178733;28;20400;-44
2021/12/29 05:08:29;;;;;;;21.80;6.43;;;;;;;11.13;68.19;100519.72;5177288;28;20648;-45
2021/12/29 05:11:05;;;;;;;31.75;6.72;;;;;;;11.13;68.12;100517.06;5172273;28;20421;-45
2021/12/29 05:13:41;;;;;;;33.53;6.05;;;;;;;11.13;68.21;100527.63;5179379;28;20445;-44
2021/12/29 05:16:14;;;;;;;32.72;6.20;;;;;;;11.14;68.23;100524.00;5182513;28;20443;-46
2021/12/29 05:18:46;;;;;;;32.88;6.75;;;;;;;11.16;68.13;100516.75;5186556;28;20863;-45
2021/12/29 05:21:18;;;;;;;41.33;7.65;;;;;;;11.18;68.05;100525.31;5184544;28;20425;-44
2021/12/29 05:23:51;;;;;;;33.88;7.10;;;;;;;11.22;68.03;100538.06;5185840;28;20425;-43
2021/12/29 05:26:24;;;;;;;32.90;8.07;;;;;;;11.24;67.93;100545.81;5192128;28;20477;-45
2021/12/29 05:28:57;;;;;;;36.47;7.65;;;;;;;11.22;68.06;100543.34;5185401;28;20448;-43
2021/12/29 05:31:29;;;;;;;40.28;8.68;;;;;;;11.20;68.12;100541.84;5199948;28;20425;-42
2021/12/29 05:34:02;;;;;;;49.72;9.70;;;;;;;11.19;68.16;100553.44;5206240;28;20432;-45
2021/12/29 05:36:34;;;;;;;47.10;9.10;;;;;;;11.17;68.17;100556.22;5203801;28;20418;-43
2021/12/29 05:39:07;;;;;;;45.60;7.87;;;;;;;11.17;68.11;100561.50;5204136;28;20527;-45
2021/12/29 05:41:41;;;;;;;47.67;7.53;;;;;;;11.15;68.08;100546.78;5198006;28;20455;-44
2021/12/29 05:44:13;;;;;;;59.47;9.00;;;;;;;11.17;68.09;100560.69;5205593;28;20533;-45
2021/12/29 05:46:46;;;;;;;41.85;8.23;;;;;;;11.18;68.15;100551.75;5206655;28;20429;-44
2021/12/29 05:49:18;;;;;;;53.25;10.05;;;;;;;11.16;68.16;100543.19;5201967;28;20491;-43
2021/12/29 05:51:50;;;;;;;66.22;10.23;;;;;;;11.15;68.18;100546.78;5202150;28;20419;-43
2021/12/29 05:54:22;;;;;;;45.20;9.60;;;;;;;11.14;68.07;100567.13;5207968;28;21025;-46
2021/12/29 05:56:56;;;;;;;56.28;9.90;;;;;;;11.10;68.16;100549.94;5207988;28;20402;-43
2021/12/29 05:59:29;;;;;;;57.70;9.40;;;;;;;11.15;68.11;100562.66;5208737;28;20425;-43
2021/12/29 06:02:01;;;;;;;49.28;9.93;;;;;;;11.18;68.15;100559.69;5199645;28;20417;-44
2021/12/29 06:04:33;;;;;;;48.85;9.32;;;;;;;11.17;68.17;100555.41;5203573;28;20954;-46
2021/12/29 06:07:06;;;;;;;49.10;9.82;;;;;;;11.20;67.97;100566.47;5204295;28;20448;-45
2021/12/29 06:09:38;;;;;;;51.63;9.82;;;;;;;11.21;68.07;100564.66;5200147;28;20422;-45
2021/12/29 06:12:12;;;;;;;51.30;9.70;;;;;;;11.22;68.03;100569.78;5201461;28;20439;-44
2021/12/29 06:14:45;;;;;;;45.92;9.43;;;;;;;11.23;67.94;100575.91;5203110;28;20428;-43
2021/12/29 06:17:17;;;;;;;62.40;9.48;;;;;;;11.21;68.02;100572.56;5204131;28;20432;-43
2021/12/29 06:19:49;;;;;;;53.67;10.80;;;;;;;11.20;67.97;100579.69;5198506;28;21082;-47
2021/12/29 06:22:22;;;;;;;53.75;10.15;;;;;;;11.17;67.80;100572.06;5200170;28;20751;-43
2021/12/29 06:24:54;;;;;;;50.50;9.70;;;;;;;11.18;68.02;100570.25;5201649;28;20444;-44
2021/12/29 06:27:28;;;;;;;45.88;10.25;;;;;;;11.16;68.09;100562.50;5200037;28;20448;-43
2021/12/29 06:30:01;;;;;;;54.63;10.48;;;;;;;11.16;68.15;100564.31;5197819;28;20424;-46
2021/12/29 06:32:33;;;;;;;48.95;9.70;;;;;;;11.14;68.14;100572.41;5202294;28;20501;-44
2021/12/29 06:35:08;;;;;;;44.35;10.05;;;;;;;11.12;68.13;100573.53;5202399;28;20515;-43
2021/12/29 06:37:41;;;;;;;46.63;9.83;;;;;;;11.15;67.86;100586.44;5196975;28;20517;-44
2021/12/29 06:40:14;;;;;;;51.50;9.43;;;;;;;11.11;68.10;100577.19;5195596;28;20439;-43
2021/12/29 06:42:48;;;;;;;45.92;10.32;;;;;;;11.15;68.03;100589.06;5197425;28;20965;-45
2021/12/29 06:45:20;;;;;;;46.58;9.68;;;;;;;11.16;67.99;100596.03;5205507;28;25121;-44
2021/12/29 06:47:52;;;;;;;50.33;9.75;;;;;;;11.17;68.10;100603.78;5208230;28;20404;-43
2021/12/29 06:50:25;;;;;;;52.10;10.30;;;;;;;11.17;68.18;100597.69;5209665;28;20557;-42
2021/12/29 06:52:57;;;;;;;33.95;8.20;;;;;;;11.14;68.13;100605.94;5201432;28;20431;-44
2021/12/29 06:55:30;;;;;;;39.00;7.47;;;;;;;11.10;68.13;100608.06;5196835;28;20438;-47
2021/12/29 06:58:04;;;;;;;36.83;8.30;;;;;;;11.12;68.16;100610.53;5205939;28;20417;-45
2021/12/29 07:00:36;;;;;;;37.30;9.27;;;;;;;11.11;68.16;100615.00;5203549;28;20808;-45
2021/12/29 07:03:09;;;;;;;41.65;7.97;;;;;;;10.82;67.93;100578.38;5196443;28;20556;-43
2021/12/29 07:05:41;;;;;;;39.88;8.57;;;;;;;11.07;68.21;100619.78;5203876;28;20413;-43
2021/12/29 07:08:14;;;;;;;34.70;7.88;;;;;;;11.08;68.15;100616.16;5210105;28;20421;-49
2021/12/29 07:10:46;;;;;;;30.30;7.70;;;;;;;11.10;68.14;100617.81;5199573;28;20439;-45
2021/12/29 07:13:20;;;;;;;27.67;6.97;;;;;;;11.10;68.02;100617.81;5199730;28;20433;-43
2021/12/29 07:15:52;;;;;;;32.67;7.90;;;;;;;11.10;68.07;100629.22;5203763;28;21791;-45
2021/12/29 07:18:24;;;;;;;34.95;8.02;;;;;;;11.03;68.12;100628.19;5203106;28;20423;-42
2021/12/29 07:20:57;;;;;;;33.03;8.05;;;;;;;11.07;68.18;100642.75;5198127;28;20413;-45
2021/12/29 07:23:29;;;;;;;32.20;7.93;;;;;;;11.04;68.17;100646.53;5197234;28;20433;-44
2021/12/29 07:26:02;;;;;;;32.22;7.75;;;;;;;11.03;68.16;100650.16;5210650;28;20519;-45
2021/12/29 07:28:35;;;;;;;41.80;7.90;;;;;;;10.94;68.06;100637.06;5206396;28;20771;-44
2021/12/29 07:31:08;;;;;;;29.98;7.05;;;;;;;11.02;68.30;100650.31;5208021;28;20935;-51
2021/12/29 07:33:43;;;;;;;31.70;6.70;;;;;;;11.00;68.14;100639.91;5222871;28;20503;-43
2021/12/29 07:36:17;;;;;;;26.98;6.60;;;;;;;11.00;68.23;100647.00;5211739;28;20983;-43
2021/12/29 07:38:50;;;;;;;25.73;6.57;;;;;;;10.97;68.14;100647.31;5205386;28;20415;-46
2021/12/29 07:41:22;;;;;;;32.25;6.57;;;;;;;10.94;68.16;100658.22;5219165;28;20418;-44
2021/12/29 07:43:57;;;;;;;24.38;5.97;;;;;;;10.93;68.38;100640.69;5213290;28;20423;-44
2021/12/29 07:46:33;;;;;;;26.73;6.53;;;;;;;10.93;68.34;100654.75;5200573;28;20425;-43
2021/12/29 07:49:05;;;;;;;24.88;5.30;;;;;;;10.90;68.47;100662.97;5199610;28;20422;-43
2021/12/29 07:51:40;;;;;;;20.65;5.03;;;;;;;10.85;68.27;100646.75;5202407;28;20987;-44
2021/12/29 07:54:13;;;;;;;19.98;5.32;;;;;;;10.91;68.34;100656.69;5205240;28;20570;-45
2021/12/29 07:56:46;;;;;;;20.60;4.57;;;;;;;10.92;68.30;100646.97;5207055;28;20436;-44
2021/12/29 07:59:20;;;;;;;19.35;4.90;;;;;;;10.91;68.13;100646.13;5202355;28;20431;-46
2021/12/29 08:01:52;;;;;;;14.27;3.27;;;;;;;10.91;68.20;100654.06;5199217;28;20981;-44
2021/12/29 08:04:25;;;;;;;14.05;3.78;;;;;;;10.90;68.26;100641.84;5198938;28;20421;-45
2021/12/29 08:06:57;;;;;;;7.93;3.35;;;;;;;10.92;68.11;100637.22;5203372;28;20417;-44
2021/12/29 08:09:30;;;;;;;12.65;3.50;;;;;;;10.94;68.10;100639.72;5200786;28;20913;-46
2021/12/29 08:12:02;;;;;;;13.68;3.70;;;;;;;10.93;68.21;100648.59;5196757;28;20862;-45
2021/12/29 08:14:36;;;;;;;14.32;3.90;;;;;;;10.91;68.13;100640.03;5204302;28;20425;-44
2021/12/29 08:17:08;;;;;;;12.98;4.38;;;;;;;10.88;68.17;100651.72;5194649;28;20423;-45
2021/12/29 08:19:41;;;;;;;14.90;4.40;;;;;;;10.90;68.25;100649.78;5195943;28;20436;-44
2021/12/29 08:22:13;;;;;;;13.45;3.97;;;;;;;10.93;68.09;100652.09;5198164;28;20429;-45
2021/12/29 08:24:46;;;;;;;18.83;4.75;;;;;;;10.93;68.07;100675.88;5193387;28;20434;-43
2021/12/29 08:27:18;;;;;;;13.55;5.03;;;;;;;10.92;68.02;100663.63;5197221;28;20435;-42
2021/12/29 08:29:52;;;;;;;17.65;4.50;;;;;;;10.93;68.14;100664.47;5195187;28;21019;-44
2021/12/29 08:32:26;;;;;;;20.58;4.60;;;;;;;10.94;68.10;100677.53;5199000;28;20405;-47
2021/12/29 08:34:58;;;;;;;18.25;4.57;;;;;;;10.94;68.03;100664.31;5191811;28;20434;-45
2021/12/29 08:37:31;;;;;;;15.57;4.70;;;;;;;10.91;68.01;100671.72;5195880;28;20743;-50
2021/12/29 08:40:07;;;;;;;18.05;5.90;;;;;;;10.90;67.98;100673.56;5192348;28;20433;-45
2021/12/29 08:42:40;;;;;;;12.80;4.78;;;;;;;10.90;67.97;100678.84;5196337;28;20430;-45
2021/12/29 08:45:17;;;;;;;15.50;5.13;;;;;;;10.89;67.96;100685.09;5197515;28;20452;-46
2021/12/29 08:47:49;;;;;;;14.23;4.43;;;;;;;10.89;68.06;100679.78;5193800;28;20435;-45
2021/12/29 08:50:22;;;;;;;13.65;4.93;;;;;;;10.93;67.88;100685.59;5200116;28;20506;-45
2021/12/29 08:52:55;;;;;;;19.00;6.63;;;;;;;10.94;67.83;100672.25;5197521;28;20420;-43
2021/12/29 08:55:27;;;;;;;21.05;6.18;;;;;;;10.92;67.78;100657.53;5201598;28;20407;-44
2021/12/29 08:58:00;;;;;;;22.08;6.03;;;;;;;10.91;67.66;100658.53;5199690;28;20413;-38
2021/12/29 09:00:35;;;;;;;20.15;4.80;;;;;;;10.92;67.73;100647.78;5197297;28;20449;-45
2021/12/29 09:03:07;;;;;;;17.90;5.97;;;;;;;10.91;67.67;100662.00;5201696;28;20429;-44
2021/12/29 09:05:40;;;;;;;22.00;6.30;;;;;;;10.93;67.59;100665.31;5199607;28;20439;-48
2021/12/29 09:08:12;;;;;;;23.13;5.65;;;;;;;10.92;67.61;100658.34;5199667;28;20433;-44
2021/12/29 09:10:45;;;;;;;20.30;5.80;;;;;;;10.93;67.53;100654.75;5203208;28;20911;-45
2021/12/29 09:13:18;;;;;;;19.37;6.57;;;;;;;10.96;67.45;100665.00;5199802;28;20418;-45
2021/12/29 09:15:56;;;;;;;21.55;5.88;;;;;;;10.98;67.45;100662.19;5199975;28;20424;-45
2021/12/29 09:18:31;;;;;;;24.73;6.10;;;;;;;10.97;67.38;100657.91;5194029;28;20449;-43
2021/12/29 09:21:11;;;;;;;19.15;6.25;;;;;;;10.45;67.32;100576.84;5193999;28;20433;-43
2021/12/29 09:23:45;;;;;;;21.75;5.82;;;;;;;10.99;67.32;100653.25;5193198;28;20581;-47
2021/12/29 09:26:18;;;;;;;19.58;6.30;;;;;;;10.99;67.47;100647.97;5195546;28;20432;-44
2021/12/29 09:28:51;;;;;;;16.50;5.43;;;;;;;10.99;67.39;100635.59;5197936;28;20480;-44
2021/12/29 09:31:25;;;;;;;25.25;6.45;;;;;;;11.00;67.33;100636.44;5193013;28;20525;-44
2021/12/29 09:33:58;;;;;;;17.55;6.65;;;;;;;11.02;67.36;100642.38;5194321;28;20417;-46
2021/12/29 09:36:31;;;;;;;17.35;6.50;;;;;;;11.02;67.30;100652.94;5185984;28;20413;-48
2021/12/29 09:39:04;;;;;;;17.40;6.20;;;;;;;11.04;67.29;100656.28;5194814;28;20498;-47
2021/12/29 09:41:36;;;;;;;29.10;7.00;;;;;;;11.07;67.32;100662.06;5191867;28;20554;-46
2021/12/29 09:44:10;;;;;;;26.03;7.20;;;;;;;11.07;67.31;100667.34;5197916;28;20440;-46
2021/12/29 09:46:44;;;;;;;20.60;7.75;;;;;;;11.09;67.43;100675.13;5193611;28;20444;-44
2021/12/29 09:49:17;;;;;;;22.60;7.22;;;;;;;11.10;67.42;100654.81;5191460;28;20498;-43
2021/12/29 09:51:51;;;;;;;15.88;6.72;;;;;;;11.07;67.49;100648.84;5191409;28;20524;-45
2021/12/29 09:54:24;;;;;;;18.38;6.88;;;;;;;11.11;67.36;100656.47;5190719;28;20417;-44
2021/12/29 09:56:56;;;;;;;20.83;7.95;;;;;;;11.12;67.30;100642.25;5196678;28;20422;-44
2021/12/29 09:59:29;;;;;;;16.60;6.82;;;;;;;11.14;67.37;100640.28;5198571;28;20421;-44
2021/12/29 10:02:02;;;;;;;15.93;6.57;;;;;;;11.11;67.39;100620.28;5193550;28;20445;-50
2021/12/29 10:04:37;;;;;;;17.80;6.60;;;;;;;11.08;67.50;100620.59;5198029;28;20427;-43
2021/12/29 10:07:16;;;;;;;16.27;6.75;;;;;;;11.10;67.59;100618.66;5193833;28;20537;-44
2021/12/29 10:09:49;;;;;;;16.73;6.63;;;;;;;11.11;67.48;100627.41;5196398;28;20425;-46
2021/12/29 10:12:22;;;;;;;18.63;6.80;;;;;;;11.13;67.69;100618.31;5194932;28;20410;-45
2021/12/29 10:14:57;;;;;;;17.70;7.25;;;;;;;11.19;67.30;100616.88;5196298;28;20529;-44
2021/12/29 10:17:31;;;;;;;13.85;7.03;;;;;;;11.24;67.44;100620.69;5200186;28;20417;-45
2021/12/29 10:20:07;;;;;;;24.02;7.40;;;;;;;11.26;67.41;100615.22;5194345;28;20418;-44
2021/12/29 10:22:41;;;;;;;18.60;7.40;;;;;;;11.31;67.39;100615.59;5200182;28;20424;-46
2021/12/29 10:25:17;;;;;;;16.25;7.30;;;;;;;11.31;67.31;100620.88;5191223;28;20879;-44
2021/12/29 10:27:50;;;;;;;13.18;7.53;;;;;;;11.30;67.29;100619.19;5198084;28;20425;-44
2021/12/29 10:30:26;;;;;;;19.88;8.25;;;;;;;11.28;67.41;100615.91;5192653;28;20940;-45
2021/12/29 10:33:11;;;;;;;14.38;7.53;;;;;;;11.25;67.47;100608.31;5174772;28;20496;-43
2021/12/29 10:35:43;;;;;;;15.65;7.80;;;;;;;11.28;67.45;100605.34;5177677;28;20779;-44
2021/12/29 10:38:19;;;;;;;17.00;7.70;;;;;;;11.31;67.43;100591.81;5181292;28;20527;-44
2021/12/29 10:40:52;;;;;;;14.23;8.02;;;;;;;11.33;67.46;100589.81;5172777;28;20431;-45
2021/12/29 10:43:24;;;;;;;15.73;7.72;;;;;;;11.35;67.36;100590.47;5183014;28;20421;-44
2021/12/29 10:45:57;;;;;;;14.60;8.40;;;;;;;11.37;67.37;100590.34;5180602;28;20910;-44
2021/12/29 10:48:31;;;;;;;22.45;10.07;;;;;;;11.40;67.12;100596.13;5167652;28;20423;-45
2021/12/29 10:51:07;;;;;;;17.15;8.77;;;;;;;11.40;67.35;100608.53;5179669;28;20419;-44
2021/12/29 10:53:40;;;;;;;17.75;8.38;;;;;;;11.38;67.24;100606.03;5186720;28;20433;-44
2021/12/29 10:56:25;;;;;;;15.70;8.33;;;;;;;11.25;67.31;100600.38;5176833;28;20875;-44
2021/12/29 10:58:57;;;;;;;18.48;8.13;;;;;;;11.34;67.36;100620.56;5175103;28;20435;-44
2021/12/29 11:01:37;;;;;;;14.88;8.02;;;;;;;11.34;67.22;100630.31;5174160;28;20413;-46
2021/12/29 11:04:13;;;;;;;15.50;7.85;;;;;;;11.29;67.32;100628.13;5170118;28;20421;-44
2021/12/29 11:06:49;;;;;;;10.57;7.22;;;;;;;11.23;67.45;100629.59;5169820;28;20783;-44
2021/12/29 11:09:28;;;;;;;13.18;7.00;;;;;;;11.15;67.54;100620.78;5178395;28;21302;-44
2021/12/29 11:12:02;;;;;;;14.27;8.07;;;;;;;11.18;67.39;100612.53;5175409;28;20441;-47
2021/12/29 11:14:37;;;;;;;15.23;8.10;;;;;;;11.15;67.45;100611.06;5176105;28;20859;-45
2021/12/29 11:17:12;;;;;;;20.95;8.95;;;;;;;11.18;67.34;100609.91;5178876;28;20489;-44
2021/12/29 11:19:52;;;;;;;14.27;7.68;;;;;;;11.21;67.10;100593.72;5177373;28;20423;-43
2021/12/29 11:22:27;;;;;;;20.98;9.07;;;;;;;11.25;66.91;100600.38;5181170;28;20415;-44
2021/12/29 11:25:02;;;;;;;19.83;9.30;;;;;;;11.24;67.12;100585.47;5178452;28;20426;-44
2021/12/29 11:27:37;;;;;;;21.75;8.82;;;;;;;11.18;67.09;100567.63;5172916;28;20795;-43
2021/12/29 11:30:13;;;;;;;17.45;8.88;;;;;;;11.20;67.11;100573.56;5176987;28;20433;-43
2021/12/29 11:32:48;;;;;;;17.35;8.00;;;;;;;11.12;67.22;100573.53;5176838;28;20540;-43
2021/12/29 11:35:25;;;;;;;14.05;7.03;;;;;;;11.02;67.30;100574.50;5166851;28;20449;-44
2021/12/29 11:38:00;;;;;;;13.73;6.57;;;;;;;11.02;67.28;100577.13;5171092;28;20436;-42
2021/12/29 11:40:36;;;;;;;12.90;7.47;;;;;;;11.03;67.25;100570.88;5172222;28;20435;-44
2021/12/29 11:43:09;;;;;;;20.10;6.97;;;;;;;11.03;67.17;100576.16;5179098;28;20491;-44